Time;durP1;ratioP1;P1;durP2;ratioP2;P2;SDS_P1;SDS_P2;PMS_P1;PMS_P2;Temp;Humidity;BMP_temperature;BMP_pressure;BME280_temperature;BME280_humidity;BME280_pressure;Samples;Min_cycle;Max_cycle;Signal;HPM_P1;HPM_P2
2024/03/14 00:00:12;;;;;;;5.55;3.38;;;9.30;56.70;;;;;;4961832;28;20037;-73
2024/03/14 00:02:40;;;;;;;6.03;4.07;;;9.30;56.50;;;;;;4959760;28;20126;-72
2024/03/14 00:05:07;;;;;;;7.43;4.53;;;9.30;56.10;;;;;;4959660;28;20065;-73
2024/03/14 00:07:33;;;;;;;7.32;4.32;;;9.30;56.80;;;;;;4960299;28;20055;-73
2024/03/14 00:09:59;;;;;;;6.30;4.13;;;9.30;56.20;;;;;;4959958;28;20066;-73
2024/03/14 00:12:25;;;;;;;6.25;4.10;;;9.20;56.10;;;;;;4959671;28;20042;-73
2024/03/14 00:14:51;;;;;;;6.45;3.88;;;9.20;56.20;;;;;;4959694;28;20039;-72
2024/03/14 00:17:20;;;;;;;7.53;4.20;;;9.20;56.70;;;;;;4959360;28;20074;-72
2024/03/14 00:19:47;;;;;;;5.18;3.75;;;9.20;56.30;;;;;;4960956;28;20046;-73
2024/03/14 00:22:17;;;;;;;6.10;4.35;;;9.20;56.10;;;;;;4958597;28;20038;-71
2024/03/14 00:24:43;;;;;;;5.78;3.70;;;9.20;56.30;;;;;;4957753;28;20035;-72
2024/03/14 00:27:09;;;;;;;6.88;3.97;;;9.20;56.10;;;;;;4959422;28;20177;-72
2024/03/14 00:29:35;;;;;;;8.38;4.10;;;9.20;56.20;;;;;;4960002;28;20031;-72
2024/03/14 00:32:06;;;;;;;6.22;3.78;;;9.20;55.90;;;;;;4958635;28;20045;-72
2024/03/14 00:34:32;;;;;;;6.20;3.72;;;9.10;56.20;;;;;;4974671;28;20126;-72
2024/03/14 00:36:59;;;;;;;9.00;3.97;;;9.20;56.00;;;;;;4960240;28;20178;-72
2024/03/14 00:39:26;;;;;;;6.55;4.25;;;9.10;56.30;;;;;;4974836;28;20074;-72
2024/03/14 00:41:53;;;;;;;5.60;4.03;;;9.10;56.60;;;;;;4962485;28;20527;-73
2024/03/14 00:44:19;;;;;;;5.97;3.80;;;9.10;56.40;;;;;;4965510;28;20034;-73
2024/03/14 00:46:45;;;;;;;5.93;3.88;;;9.10;55.70;;;;;;4961863;28;20039;-71
2024/03/14 00:49:12;;;;;;;5.00;3.88;;;9.10;56.00;;;;;;4961815;28;20042;-72
2024/03/14 00:51:38;;;;;;;6.50;4.20;;;9.10;55.90;;;;;;4961642;28;20142;-72
2024/03/14 00:54:05;;;;;;;6.32;3.95;;;9.10;56.00;;;;;;4960893;28;20031;-72
2024/03/14 00:56:31;;;;;;;5.13;3.70;;;9.10;56.10;;;;;;4961542;28;20515;-73
2024/03/14 00:58:58;;;;;;;7.07;3.97;;;9.10;56.00;;;;;;4959554;28;20043;-74
2024/03/14 01:01:25;;;;;;;5.18;3.88;;;9.10;55.90;;;;;;4960260;28;20031;-73
2024/03/14 01:03:55;;;;;;;7.22;4.35;;;9.00;55.80;;;;;;4961700;28;20049;-73
2024/03/14 01:06:21;;;;;;;7.43;4.32;;;9.00;55.90;;;;;;4966858;28;20046;-74
2024/03/14 01:08:49;;;;;;;5.55;3.95;;;9.00;55.80;;;;;;4966120;28;20038;-73
2024/03/14 01:11:18;;;;;;;6.43;4.30;;;9.00;55.40;;;;;;4962994;28;20050;-73
2024/03/14 01:13:44;;;;;;;5.72;4.20;;;9.00;55.00;;;;;;4962490;28;20043;-72
2024/03/14 01:16:10;;;;;;;7.20;4.10;;;9.00;55.00;;;;;;4964549;28;20043;-72
2024/03/14 01:18:37;;;;;;;6.57;4.18;;;9.00;55.50;;;;;;4966070;28;20050;-72
2024/03/14 01:21:08;;;;;;;7.07;4.70;;;9.00;55.30;;;;;;4964772;28;20049;-71
2024/03/14 01:23:34;;;;;;;6.00;4.30;;;9.00;55.20;;;;;;4965367;28;20062;-72
2024/03/14 01:26:03;;;;;;;7.82;4.38;;;9.00;55.00;;;;;;4963427;28;20038;-73
2024/03/14 01:28:29;;;;;;;8.18;4.75;;;9.00;54.80;;;;;;4964888;28;20037;-72
2024/03/14 01:30:58;;;;;;;6.95;4.43;;;9.00;54.90;;;;;;4972031;28;20053;-72
2024/03/14 01:33:25;;;;;;;9.00;4.53;;;9.00;54.70;;;;;;4970832;28;20513;-72
2024/03/14 01:35:54;;;;;;;7.22;4.78;;;9.00;54.80;;;;;;4981728;28;20034;-72
2024/03/14 01:38:21;;;;;;;9.48;4.80;;;9.00;54.80;;;;;;4964931;28;20521;-74
2024/03/14 01:40:48;;;;;;;8.30;5.15;;;9.00;54.80;;;;;;4965609;28;20035;-72
2024/03/14 01:43:14;;;;;;;7.97;4.97;;;9.00;54.80;;;;;;4967473;28;20035;-72
2024/03/14 01:45:46;;;;;;;10.18;4.72;;;9.00;55.10;;;;;;4964234;28;20035;-71
2024/03/14 01:48:13;;;;;;;7.40;4.70;;;9.00;55.20;;;;;;4966392;28;20433;-73
2024/03/14 01:50:39;;;;;;;7.88;4.95;;;9.00;55.20;;;;;;4966145;28;20031;-74
2024/03/14 01:53:05;;;;;;;7.30;5.00;;;9.00;55.30;;;;;;4965411;28;20035;-72
2024/03/14 01:55:32;;;;;;;7.10;4.85;;;8.90;55.40;;;;;;4965843;28;20038;-72
2024/03/14 01:58:02;;;;;;;8.35;5.45;;;8.90;55.20;;;;;;4965510;28;20035;-72
2024/03/14 02:00:35;;;;;;;8.30;5.63;;;8.90;55.00;;;;;;4964573;28;20042;-73
2024/03/14 02:03:02;;;;;;;8.70;5.50;;;8.90;55.30;;;;;;4963307;28;20131;-73
2024/03/14 02:05:46;;;;;;;6.63;4.75;;;8.90;55.10;;;;;;4964329;28;20031;-73
2024/03/14 02:08:12;;;;;;;8.13;5.30;;;8.90;55.20;;;;;;4963253;28;20031;-73
2024/03/14 02:10:39;;;;;;;7.32;5.18;;;8.90;54.60;;;;;;4965680;28;20126;-73
2024/03/14 02:13:05;;;;;;;8.80;5.30;;;8.90;54.60;;;;;;4965084;28;20031;-73
2024/03/14 02:15:31;;;;;;;9.50;6.10;;;8.80;54.60;;;;;;4964751;28;20041;-73
2024/03/14 02:17:57;;;;;;;8.85;5.57;;;8.90;55.20;;;;;;4965110;28;20050;-73
2024/03/14 02:20:23;;;;;;;8.02;5.55;;;8.90;54.90;;;;;;4965736;28;20042;-72
2024/03/14 02:22:49;;;;;;;7.88;5.35;;;8.80;54.70;;;;;;4966350;28;20410;-72
2024/03/14 02:25:15;;;;;;;8.95;5.57;;;8.90;55.60;;;;;;4965549;28;20378;-72
2024/03/14 02:27:41;;;;;;;9.55;6.15;;;8.80;54.90;;;;;;4964380;28;20035;-72
2024/03/14 02:30:08;;;;;;;11.63;6.72;;;8.80;54.70;;;;;;4965526;28;20035;-72
2024/03/14 02:32:34;;;;;;;10.10;6.05;;;8.80;55.10;;;;;;4967157;28;20129;-71
2024/03/14 02:35:03;;;;;;;9.25;6.68;;;8.80;55.20;;;;;;4963991;28;20082;-72
2024/03/14 02:37:32;;;;;;;10.27;6.30;;;8.80;54.90;;;;;;4964059;28;20071;-72
2024/03/14 02:39:58;;;;;;;9.90;6.50;;;8.80;54.70;;;;;;4964943;28;20942;-72
2024/03/14 02:42:24;;;;;;;10.57;6.60;;;8.80;55.00;;;;;;4963179;28;20053;-73
2024/03/14 02:44:50;;;;;;;10.43;7.00;;;8.80;54.70;;;;;;4962381;28;20034;-72
2024/03/14 02:47:17;;;;;;;10.55;6.35;;;8.80;54.80;;;;;;4964474;28;20035;-72
2024/03/14 02:49:43;;;;;;;10.85;7.07;;;8.80;54.50;;;;;;4978360;28;20413;-73
2024/03/14 02:52:09;;;;;;;10.57;7.13;;;8.70;54.40;;;;;;4963345;28;20387;-73
2024/03/14 02:54:35;;;;;;;11.60;7.25;;;8.70;54.60;;;;;;4962616;28;20097;-72
2024/03/14 02:57:01;;;;;;;13.93;7.57;;;8.70;54.80;;;;;;4962425;28;20441;-72
2024/03/14 02:59:27;;;;;;;9.38;6.30;;;8.70;54.90;;;;;;4963301;28;20081;-73
2024/03/14 03:01:53;;;;;;;10.50;6.80;;;8.70;55.30;;;;;;4976773;28;20442;-73
2024/03/14 03:04:19;;;;;;;13.07;6.85;;;8.70;55.20;;;;;;4961476;28;20039;-73
2024/03/14 03:06:52;;;;;;;14.13;7.78;;;8.70;55.10;;;;;;4963259;28;20042;-73
2024/03/14 03:09:22;;;;;;;12.25;7.05;;;8.70;55.20;;;;;;4963001;28;20855;-73
2024/03/14 03:11:48;;;;;;;10.45;7.20;;;8.70;55.10;;;;;;4964735;28;20031;-74
2024/03/14 03:14:14;;;;;;;12.05;7.43;;;8.60;54.70;;;;;;4963853;28;20390;-74
2024/03/14 03:16:40;;;;;;;12.13;7.38;;;8.70;55.00;;;;;;4964796;28;20035;-74
2024/03/14 03:19:09;;;;;;;12.05;7.32;;;8.60;54.90;;;;;;4964750;28;20133;-74
2024/03/14 03:21:40;;;;;;;12.05;7.20;;;8.60;54.60;;;;;;4965112;28;20049;-74
2024/03/14 03:24:07;;;;;;;11.55;7.28;;;8.60;54.80;;;;;;4964610;28;20593;-74
2024/03/14 03:26:36;;;;;;;12.20;7.40;;;8.60;54.60;;;;;;4965638;28;20037;-73
2024/03/14 03:29:03;;;;;;;11.90;8.05;;;8.60;54.50;;;;;;4965515;28;20039;-74
2024/03/14 03:31:30;;;;;;;12.10;7.38;;;8.60;54.30;;;;;;4963781;28;20043;-74
2024/03/14 03:33:56;;;;;;;12.93;6.88;;;8.60;55.30;;;;;;4964094;28;20410;-73
2024/03/14 03:36:22;;;;;;;12.38;7.90;;;8.60;54.80;;;;;;4963421;28;20046;-71
2024/03/14 03:38:49;;;;;;;12.45;7.90;;;8.50;55.20;;;;;;4964063;28;20034;-72
2024/03/14 03:41:15;;;;;;;13.77;7.47;;;8.50;54.90;;;;;;4964419;28;20031;-72
2024/03/14 03:43:41;;;;;;;11.75;7.63;;;8.60;55.20;;;;;;4961375;28;20509;-72
2024/03/14 03:46:09;;;;;;;11.48;7.57;;;8.50;55.00;;;;;;4963425;28;20486;-73
2024/03/14 03:48:39;;;;;;;12.50;7.75;;;8.50;55.20;;;;;;4962367;28;20101;-72
2024/03/14 03:51:05;;;;;;;13.40;7.63;;;8.50;55.10;;;;;;4962978;28;20037;-73
2024/03/14 03:53:35;;;;;;;13.50;8.18;;;8.50;54.60;;;;;;4979120;28;20042;-72
2024/03/14 03:56:05;;;;;;;11.40;8.07;;;8.50;54.90;;;;;;4963534;28;20127;-74
2024/03/14 03:58:34;;;;;;;12.95;8.05;;;8.50;54.50;;;;;;4960819;28;20050;-73
2024/03/14 04:01:06;;;;;;;13.98;8.85;;;8.50;55.00;;;;;;4964302;28;20031;-74
2024/03/14 04:03:35;;;;;;;16.23;9.25;;;8.50;55.00;;;;;;4963647;28;20536;-73
2024/03/14 04:06:02;;;;;;;12.88;8.13;;;8.50;54.90;;;;;;4963673;28;20513;-73
2024/03/14 04:08:30;;;;;;;15.25;8.63;;;8.50;55.30;;;;;;4946618;28;20046;-73
2024/03/14 04:10:57;;;;;;;14.85;9.00;;;8.50;55.10;;;;;;4964961;28;20042;-74
2024/03/14 04:13:23;;;;;;;15.38;8.70;;;8.40;54.90;;;;;;4963350;28;20410;-72
2024/03/14 04:15:49;;;;;;;14.20;7.82;;;8.40;55.10;;;;;;4945529;28;20039;-74
2024/03/14 04:18:15;;;;;;;13.07;8.18;;;8.50;55.20;;;;;;4962641;28;20062;-75
2024/03/14 04:20:41;;;;;;;14.05;8.80;;;8.40;55.50;;;;;;4964053;28;20447;-74
2024/03/14 04:23:07;;;;;;;15.25;8.57;;;8.40;55.10;;;;;;4962107;28;20091;-76
2024/03/14 04:25:33;;;;;;;12.40;8.38;;;8.40;55.20;;;;;;4963078;28;20367;-72
2024/03/14 04:28:00;;;;;;;13.32;8.25;;;8.40;55.00;;;;;;4961636;28;20094;-71
2024/03/14 04:30:27;;;;;;;12.73;7.97;;;8.40;55.00;;;;;;4963571;28;20041;-72
2024/03/14 04:32:54;;;;;;;13.50;8.63;;;8.40;54.60;;;;;;4962955;28;20045;-73
2024/03/14 04:35:22;;;;;;;12.35;8.05;;;8.40;54.80;;;;;;4961182;28;20049;-75
2024/03/14 04:37:52;;;;;;;13.18;8.98;;;8.40;54.90;;;;;;4975804;28;20482;-74
2024/03/14 04:40:21;;;;;;;12.85;8.35;;;8.40;54.90;;;;;;4963710;28;20047;-73
2024/03/14 04:42:55;;;;;;;14.65;8.85;;;8.40;54.50;;;;;;4964182;28;20083;-73
2024/03/14 04:45:21;;;;;;;17.08;9.55;;;8.40;54.40;;;;;;4963262;28;20059;-74
2024/03/14 04:47:51;;;;;;;15.60;9.13;;;8.40;54.70;;;;;;4952300;28;20125;-74
2024/03/14 04:50:20;;;;;;;14.35;8.98;;;8.40;55.10;;;;;;4962862;28;20039;-75
2024/03/14 04:52:48;;;;;;;15.70;9.52;;;8.50;55.00;;;;;;4965061;28;20063;-75
2024/03/14 04:55:14;;;;;;;13.25;9.27;;;8.40;54.90;;;;;;4963430;28;20031;-74
2024/03/14 04:57:41;;;;;;;16.00;9.68;;;8.40;55.00;;;;;;4963292;28;20050;-73
2024/03/14 05:00:11;;;;;;;15.88;9.48;;;8.40;55.40;;;;;;4965409;28;20126;-74
2024/03/14 05:02:46;;;;;;;14.98;9.48;;;8.50;55.80;;;;;;4966228;28;20034;-74
2024/03/14 05:05:13;;;;;;;20.52;9.95;;;8.50;56.30;;;;;;4964620;28;20027;-73
2024/03/14 05:07:39;;;;;;;13.77;9.48;;;8.50;56.80;;;;;;4967519;28;20035;-73
2024/03/14 05:10:05;;;;;;;17.25;10.15;;;8.50;56.80;;;;;;4963526;28;20039;-73
2024/03/14 05:12:32;;;;;;;14.90;9.57;;;8.50;56.80;;;;;;4951934;28;20035;-73
2024/03/14 05:14:58;;;;;;;17.25;9.55;;;8.50;57.10;;;;;;4968039;28;20117;-74
2024/03/14 05:17:24;;;;;;;17.73;9.70;;;8.50;57.50;;;;;;4965956;28;20374;-74
2024/03/14 05:19:50;;;;;;;14.85;9.60;;;8.50;57.70;;;;;;4966283;28;20086;-74
2024/03/14 05:22:19;;;;;;;18.42;10.75;;;8.50;57.60;;;;;;4963807;28;20042;-74
2024/03/14 05:24:45;;;;;;;16.60;10.40;;;8.60;57.90;;;;;;4963573;28;20038;-74
2024/03/14 05:27:12;;;;;;;19.08;10.63;;;8.60;58.20;;;;;;4964188;28;20035;-75
2024/03/14 05:29:38;;;;;;;14.43;9.43;;;8.60;58.00;;;;;;4964627;28;20039;-75
2024/03/14 05:32:20;;;;;;;15.82;9.77;;;8.60;58.00;;;;;;4965323;28;20031;-74
2024/03/14 05:34:50;;;;;;;15.23;9.10;;;8.60;57.80;;;;;;4962874;28;20031;-74
2024/03/14 05:37:16;;;;;;;14.93;9.02;;;8.70;58.10;;;;;;4965529;28;20043;-74
2024/03/14 05:39:44;;;;;;;14.43;8.95;;;8.70;58.30;;;;;;4963364;28;20035;-74
2024/03/14 05:42:13;;;;;;;15.45;9.80;;;8.70;58.80;;;;;;4962220;28;20039;-75
2024/03/14 05:44:43;;;;;;;14.25;9.57;;;8.80;58.90;;;;;;4965250;28;20038;-74
2024/03/14 05:47:11;;;;;;;14.07;9.02;;;8.90;58.60;;;;;;4948358;28;20031;-74
2024/03/14 05:49:38;;;;;;;16.67;9.55;;;9.00;58.60;;;;;;4964143;28;20514;-74
2024/03/14 05:52:04;;;;;;;14.80;9.45;;;9.00;58.60;;;;;;4962421;28;20502;-75
2024/03/14 05:54:31;;;;;;;13.95;9.30;;;9.10;58.20;;;;;;4964681;28;20126;-75
2024/03/14 05:56:58;;;;;;;15.20;9.80;;;9.20;58.30;;;;;;4964457;28;20030;-75
2024/03/14 05:59:24;;;;;;;13.85;9.27;;;9.30;57.60;;;;;;4964122;28;20039;-74
2024/03/14 06:01:53;;;;;;;13.38;9.68;;;9.40;57.60;;;;;;4960858;28;20210;-75
2024/03/14 06:04:21;;;;;;;13.15;8.75;;;9.40;57.30;;;;;;4964101;28;20066;-74
2024/03/14 06:06:48;;;;;;;17.15;9.70;;;9.60;57.00;;;;;;4963018;28;20764;-75
2024/03/14 06:09:17;;;;;;;13.80;8.98;;;9.70;57.40;;;;;;4962888;28;20027;-74
2024/03/14 06:14:29;;;;;;;13.80;8.95;;;9.90;57.60;;;;;;4963831;28;20035;-74
2024/03/14 06:16:55;;;;;;;14.20;8.77;;;10.00;57.80;;;;;;4964106;28;20035;-75
2024/03/14 06:19:21;;;;;;;15.48;9.02;;;10.10;57.80;;;;;;4961869;28;20061;-72
2024/03/14 06:21:49;;;;;;;11.68;8.00;;;10.20;57.80;;;;;;4961280;28;20066;-73
2024/03/14 06:24:16;;;;;;;10.95;7.88;;;10.30;57.80;;;;;;4959688;28;20129;-74
2024/03/14 06:26:43;;;;;;;11.48;7.65;;;10.50;57.80;;;;;;4959577;28;20054;-74
2024/03/14 06:29:09;;;;;;;11.48;8.07;;;10.70;58.00;;;;;;4962361;28;20117;-74
2024/03/14 06:31:36;;;;;;;11.50;7.82;;;10.80;58.20;;;;;;4960829;28;20177;-74
2024/03/14 06:34:02;;;;;;;12.65;7.18;;;10.90;57.90;;;;;;4958449;28;20079;-73
2024/03/14 06:36:28;;;;;;;11.13;7.75;;;11.00;57.70;;;;;;4963215;28;20877;-74
2024/03/14 06:38:55;;;;;;;11.63;7.68;;;11.10;57.70;;;;;;4959802;28;20162;-75
2024/03/14 06:41:21;;;;;;;10.45;7.28;;;11.20;57.40;;;;;;4960887;28;20039;-74
2024/03/14 06:43:48;;;;;;;10.55;7.03;;;11.20;57.50;;;;;;4962948;28;20833;-74
2024/03/14 06:46:16;;;;;;;11.43;7.25;;;11.30;57.30;;;;;;4960331;28;20567;-74
2024/03/14 06:48:42;;;;;;;12.02;8.32;;;11.40;57.20;;;;;;4960896;28;20786;-74
2024/03/14 06:51:09;;;;;;;10.65;7.35;;;11.60;57.30;;;;;;4960884;28;20031;-74
2024/03/14 06:53:35;;;;;;;12.25;7.88;;;11.60;57.00;;;;;;4961612;28;20062;-74
2024/03/14 06:56:02;;;;;;;11.65;7.05;;;11.70;56.70;;;;;;4962176;28;20137;-74
2024/03/14 06:58:28;;;;;;;12.50;7.00;;;11.80;56.60;;;;;;4960316;28;20122;-74
2024/03/14 07:00:54;;;;;;;12.45;7.40;;;11.90;56.50;;;;;;4973000;28;20055;-74
2024/03/14 07:03:22;;;;;;;10.30;6.57;;;12.00;57.00;;;;;;4960124;28;20130;-73
2024/03/14 07:05:48;;;;;;;9.77;6.53;;;12.10;56.40;;;;;;4942164;28;20391;-73
2024/03/14 07:08:14;;;;;;;10.85;7.07;;;12.20;56.30;;;;;;4961029;28;20079;-74
2024/03/14 07:10:40;;;;;;;9.05;6.55;;;12.30;56.50;;;;;;4960331;28;20074;-74
2024/03/14 07:13:07;;;;;;;10.00;6.60;;;12.30;56.30;;;;;;4975030;28;20035;-74
2024/03/14 07:15:35;;;;;;;11.60;6.60;;;12.40;56.30;;;;;;4943356;28;20042;-74
2024/03/14 07:18:05;;;;;;;10.10;6.82;;;12.50;56.30;;;;;;4957989;28;20051;-74
2024/03/14 07:20:35;;;;;;;9.23;6.70;;;12.60;56.30;;;;;;4962138;28;20520;-76
2024/03/14 07:23:01;;;;;;;9.43;6.18;;;12.70;56.40;;;;;;4958052;28;20569;-73
2024/03/14 07:25:28;;;;;;;9.05;6.30;;;12.70;56.20;;;;;;4959551;28;20070;-73
2024/03/14 07:27:54;;;;;;;10.38;7.57;;;12.80;56.10;;;;;;4961211;28;20058;-74
2024/03/14 07:30:24;;;;;;;10.27;7.00;;;12.90;56.10;;;;;;4964207;28;20494;-74
2024/03/14 07:32:53;;;;;;;9.68;6.80;;;13.00;56.00;;;;;;4960291;28;20043;-74
2024/03/14 07:35:19;;;;;;;10.07;7.10;;;13.10;55.80;;;;;;4958854;28;20050;-74
2024/03/14 07:37:47;;;;;;;10.13;7.25;;;13.10;55.70;;;;;;4957933;28;20195;-74
2024/03/14 07:40:16;;;;;;;9.20;6.72;;;13.20;56.50;;;;;;4959136;28;20035;-74
2024/03/14 07:42:43;;;;;;;11.68;7.32;;;13.30;56.00;;;;;;4958752;28;20051;-74
2024/03/14 07:45:17;;;;;;;10.50;6.57;;;13.40;56.10;;;;;;4958254;28;20063;-73
2024/03/14 07:47:52;;;;;;;11.82;6.90;;;13.40;56.00;;;;;;4960073;28;20469;-74
2024/03/14 07:50:18;;;;;;;12.30;6.93;;;13.50;55.90;;;;;;4958278;28;20756;-73
2024/03/14 07:52:47;;;;;;;9.50;6.15;;;13.60;55.70;;;;;;4960407;28;20090;-74
2024/03/14 07:55:16;;;;;;;10.40;6.50;;;13.60;55.60;;;;;;4958345;28;20133;-74
2024/03/14 07:57:42;;;;;;;9.63;6.20;;;13.70;55.50;;;;;;4957677;28;20032;-75
2024/03/14 08:00:09;;;;;;;8.20;5.70;;;13.80;55.40;;;;;;4959621;28;20490;-74
2024/03/14 08:02:38;;;;;;;7.97;5.88;;;13.80;55.10;;;;;;4959157;28;20043;-73
2024/03/14 08:05:08;;;;;;;9.18;6.00;;;13.90;55.00;;;;;;4971927;28;20073;-73
2024/03/14 08:07:37;;;;;;;9.18;6.03;;;13.90;54.80;;;;;;4960583;28;20042;-73
2024/03/14 08:10:05;;;;;;;7.38;5.38;;;14.00;55.30;;;;;;4959118;28;20084;-73
2024/03/14 08:12:33;;;;;;;8.85;6.10;;;14.00;54.50;;;;;;4959795;28;20076;-74
2024/03/14 08:15:16;;;;;;;7.57;5.22;;;14.10;54.50;;;;;;4961411;28;20031;-73
2024/03/14 08:17:44;;;;;;;7.07;5.40;;;14.10;56.50;;;;;;4959770;28;20043;-73
2024/03/14 08:20:15;;;;;;;8.93;6.43;;;15.00;54.30;;;;;;4963144;28;20062;-74
2024/03/14 08:22:44;;;;;;;10.15;5.93;;;14.20;53.80;;;;;;4962135;28;20039;-74
2024/03/14 08:25:16;;;;;;;10.25;6.55;;;14.30;53.60;;;;;;4962469;28;20079;-73
2024/03/14 08:27:43;;;;;;;9.18;6.68;;;14.30;53.40;;;;;;4963056;28;20032;-73
2024/03/14 08:30:11;;;;;;;9.32;6.50;;;14.30;53.40;;;;;;4962254;28;20031;-74
2024/03/14 08:32:38;;;;;;;8.77;5.60;;;14.40;53.20;;;;;;4962674;28;20105;-74
2024/03/14 08:35:10;;;;;;;9.65;6.65;;;14.40;53.10;;;;;;4961292;28;20042;-74
2024/03/14 08:37:36;;;;;;;9.05;6.05;;;14.40;52.90;;;;;;4963067;28;20061;-74
2024/03/14 08:40:05;;;;;;;8.15;5.88;;;14.40;52.80;;;;;;4962614;28;20391;-74
2024/03/14 08:42:31;;;;;;;8.27;5.93;;;14.40;52.70;;;;;;4961654;28;20085;-73
2024/03/14 08:44:59;;;;;;;8.10;5.78;;;14.40;52.60;;;;;;4945226;28;20042;-74
2024/03/14 08:47:25;;;;;;;7.50;5.68;;;14.50;52.60;;;;;;4962343;28;20070;-73
2024/03/14 08:49:51;;;;;;;10.98;6.13;;;14.50;52.60;;;;;;4963544;28;20801;-74
2024/03/14 08:52:17;;;;;;;8.52;5.68;;;14.50;52.80;;;;;;4961794;28;20646;-73
2024/03/14 08:54:46;;;;;;;8.27;5.57;;;14.50;52.90;;;;;;4963051;28;20805;-74
2024/03/14 08:57:15;;;;;;;6.82;5.50;;;14.50;52.80;;;;;;4963413;28;20031;-75
2024/03/14 08:59:42;;;;;;;8.20;5.72;;;14.60;52.80;;;;;;4962182;28;20157;-75
2024/03/14 09:02:09;;;;;;;9.65;5.45;;;14.50;52.60;;;;;;4961118;28;20031;-74
2024/03/14 09:04:46;;;;;;;8.10;5.72;;;14.50;52.70;;;;;;4962819;28;20117;-74
2024/03/14 09:07:15;;;;;;;9.57;5.78;;;14.50;52.40;;;;;;4965564;28;20028;-74
2024/03/14 09:09:41;;;;;;;9.25;5.38;;;14.50;52.40;;;;;;4962054;28;20453;-74
2024/03/14 09:12:13;;;;;;;9.30;6.05;;;14.50;52.30;;;;;;4961971;28;20038;-74
2024/03/14 09:14:41;;;;;;;9.60;6.07;;;14.50;52.30;;;;;;4963499;28;20027;-74
2024/03/14 09:17:07;;;;;;;8.10;5.72;;;14.50;52.40;;;;;;4963144;28;20067;-74
2024/03/14 09:19:33;;;;;;;8.18;6.15;;;14.50;52.30;;;;;;4966161;28;20042;-74
2024/03/14 09:21:59;;;;;;;9.05;6.55;;;14.50;52.10;;;;;;4963133;28;20039;-74
2024/03/14 09:24:25;;;;;;;12.45;7.20;;;14.50;52.00;;;;;;4959003;28;20497;-74
2024/03/14 09:26:53;;;;;;;9.07;6.57;;;14.50;51.60;;;;;;4962832;28;20090;-74
2024/03/14 09:29:21;;;;;;;8.18;6.53;;;14.50;51.80;;;;;;4961152;28;20041;-73
2024/03/14 09:31:49;;;;;;;9.05;6.50;;;14.50;51.80;;;;;;4960397;28;20514;-73
2024/03/14 09:34:17;;;;;;;10.95;6.85;;;14.50;51.40;;;;;;4961468;28;20043;-74
2024/03/14 09:36:50;;;;;;;11.30;7.00;;;14.40;51.20;;;;;;4962512;28;20489;-75
2024/03/14 09:39:18;;;;;;;9.50;6.50;;;14.40;51.00;;;;;;4961955;28;20070;-74
2024/03/14 09:41:48;;;;;;;9.60;7.28;;;14.40;50.70;;;;;;4976205;28;20046;-74
2024/03/14 09:44:15;;;;;;;10.70;7.07;;;14.40;50.00;;;;;;4958891;28;20126;-74
2024/03/14 09:46:49;;;;;;;9.50;6.40;;;14.40;50.50;;;;;;4961039;28;20031;-73
2024/03/14 09:49:19;;;;;;;8.75;6.35;;;14.40;50.20;;;;;;4961324;28;20059;-73
2024/03/14 09:51:48;;;;;;;8.93;5.78;;;14.40;49.60;;;;;;4963202;28;20078;-75
2024/03/14 09:54:19;;;;;;;8.75;6.40;;;14.40;49.40;;;;;;4962152;28;20091;-75
2024/03/14 09:56:46;;;;;;;9.90;5.82;;;14.40;49.20;;;;;;4964758;28;20050;-75
2024/03/14 09:59:12;;;;;;;7.63;5.63;;;14.40;50.00;;;;;;4959176;28;20035;-73
2024/03/14 10:01:44;;;;;;;8.68;5.82;;;14.40;49.50;;;;;;4960827;28;20046;-73
2024/03/14 10:04:11;;;;;;;7.57;5.45;;;14.40;48.90;;;;;;4961407;28;20042;-74
2024/03/14 10:06:40;;;;;;;8.18;5.57;;;14.40;49.10;;;;;;4962315;28;20438;-75
2024/03/14 10:09:11;;;;;;;7.50;5.60;;;14.40;49.20;;;;;;4960200;28;20726;-74
2024/03/14 10:11:39;;;;;;;7.28;5.07;;;14.30;49.20;;;;;;4963410;28;20030;-74
2024/03/14 10:14:06;;;;;;;8.48;5.55;;;14.30;49.20;;;;;;4960043;28;20039;-73
2024/03/14 10:16:32;;;;;;;8.52;5.82;;;14.30;49.40;;;;;;4958594;28;20039;-74
2024/03/14 10:18:58;;;;;;;9.02;5.28;;;14.30;49.40;;;;;;4961449;28;20109;-73
2024/03/14 10:21:25;;;;;;;7.65;5.53;;;14.20;49.00;;;;;;4962496;28;20030;-73
2024/03/14 10:23:51;;;;;;;8.63;5.72;;;14.30;48.90;;;;;;4962741;28;20031;-74
2024/03/14 10:26:17;;;;;;;8.48;5.40;;;14.20;48.60;;;;;;4961249;28;20034;-74
2024/03/14 10:28:45;;;;;;;9.48;5.90;;;14.20;48.50;;;;;;4962667;28;20530;-74
2024/03/14 10:31:13;;;;;;;14.25;5.38;;;14.20;48.50;;;;;;4961042;28;20035;-75
2024/03/14 10:33:40;;;;;;;8.70;5.50;;;14.20;48.70;;;;;;4964978;28;20075;-76
2024/03/14 10:36:12;;;;;;;7.85;5.05;;;14.20;48.40;;;;;;4961249;28;20031;-75
2024/03/14 10:38:40;;;;;;;7.43;5.53;;;14.20;48.70;;;;;;4963197;28;20031;-73
2024/03/14 10:41:09;;;;;;;7.60;5.15;;;14.20;48.70;;;;;;4963374;28;20398;-74
2024/03/14 10:43:39;;;;;;;7.95;5.07;;;14.10;48.60;;;;;;4962545;28;20034;-74
2024/03/14 10:46:15;;;;;;;7.32;5.43;;;14.10;48.30;;;;;;4962349;28;20039;-73
2024/03/14 10:48:44;;;;;;;;;;;14.10;48.30;;;;;;4962954;28;20042;-74
2024/03/14 10:51:14;;;;;;;8.48;5.45;;;14.20;48.30;;;;;;4960938;28;20158;-74
2024/03/14 10:53:41;;;;;;;9.50;5.10;;;14.10;48.20;;;;;;4961692;28;20035;-76
2024/03/14 10:56:22;;;;;;;8.60;5.35;;;14.20;48.40;;;;;;4963237;28;20039;-74
2024/03/14 10:58:49;;;;;;;9.75;5.32;;;14.10;48.30;;;;;;4961395;28;20490;-74
2024/03/14 11:01:17;;;;;;;7.80;4.70;;;14.10;48.40;;;;;;4962511;28;20042;-74
2024/03/14 11:03:43;;;;;;;7.97;4.75;;;14.10;48.30;;;;;;4964170;28;20039;-75
2024/03/14 11:06:18;;;;;;;8.07;5.13;;;14.10;48.30;;;;;;4963043;28;20034;-75
2024/03/14 11:08:46;;;;;;;6.28;4.63;;;14.10;48.10;;;;;;4961365;28;20030;-74
2024/03/14 11:11:18;;;;;;;7.15;4.78;;;14.00;48.20;;;;;;4961883;28;20125;-75
2024/03/14 11:13:51;;;;;;;8.07;5.13;;;14.00;48.30;;;;;;4962887;28;20573;-74
2024/03/14 11:16:19;;;;;;;6.75;4.55;;;14.00;48.60;;;;;;4977643;28;20568;-75
2024/03/14 11:18:53;;;;;;;6.93;5.00;;;14.00;48.10;;;;;;4964366;28;20046;-74
2024/03/14 11:21:25;;;;;;;7.82;4.68;;;14.00;48.30;;;;;;4962300;28;20436;-75
2024/03/14 11:23:54;;;;;;;7.35;4.82;;;14.00;48.40;;;;;;4976406;28;20054;-75
2024/03/14 11:26:47;;;;;;;7.88;4.82;;;14.00;48.10;;;;;;4960955;28;20429;-75
2024/03/14 11:29:20;;;;;;;7.53;4.60;;;13.90;48.10;;;;;;4960129;28;20027;-76
2024/03/14 11:32:18;;;;;;;7.82;5.60;;;13.90;48.20;;;;;;4960326;28;20042;-75
2024/03/14 11:34:46;;;;;;;7.40;4.70;;;13.90;48.10;;;;;;4943910;28;21237;-75
2024/03/14 11:37:14;;;;;;;7.22;5.00;;;13.90;48.40;;;;;;4963192;28;20489;-74
2024/03/14 11:39:46;;;;;;;7.75;4.57;;;13.90;48.10;;;;;;4963956;28;20050;-73
2024/03/14 11:42:16;;;;;;;6.10;4.65;;;13.90;48.00;;;;;;4961858;28;20413;-74
2024/03/14 11:44:47;;;;;;;6.85;4.70;;;13.80;47.60;;;;;;4960328;28;20035;-73
2024/03/14 11:47:34;;;;;;;8.52;4.53;;;13.90;48.00;;;;;;4962524;28;20174;-77
2024/03/14 11:50:00;;;;;;;6.90;4.22;;;13.90;47.90;;;;;;4962341;28;20038;-75
2024/03/14 11:52:27;;;;;;;6.43;4.70;;;13.80;47.90;;;;;;4962078;28;20063;-75
2024/03/14 11:54:57;;;;;;;8.25;4.43;;;13.90;48.10;;;;;;4959451;28;20034;-75
2024/03/14 11:57:25;;;;;;;5.88;4.25;;;13.80;48.70;;;;;;4961347;28;20039;-74
2024/03/14 11:59:51;;;;;;;8.52;4.78;;;13.80;48.20;;;;;;4959975;28;20043;-75
2024/03/14 12:02:19;;;;;;;8.73;4.80;;;13.80;48.20;;;;;;4963391;28;20206;-75
2024/03/14 12:04:47;;;;;;;6.35;3.88;;;13.80;47.90;;;;;;4961402;28;20062;-74
2024/03/14 12:07:13;;;;;;;6.18;4.18;;;13.80;48.20;;;;;;4960548;28;20035;-74
2024/03/14 12:09:39;;;;;;;6.38;4.68;;;13.80;48.10;;;;;;4962658;28;20039;-75
2024/03/14 12:12:06;;;;;;;7.25;4.30;;;13.80;48.40;;;;;;4961524;28;20031;-74
2024/03/14 12:14:33;;;;;;;6.75;4.47;;;13.80;48.70;;;;;;4960144;28;20478;-74
2024/03/14 12:17:00;;;;;;;5.10;3.72;;;13.70;49.00;;;;;;4959833;28;20062;-74
2024/03/14 12:19:26;;;;;;;8.40;4.57;;;13.70;48.90;;;;;;4961605;28;20134;-74
2024/03/14 12:21:55;;;;;;;6.22;4.00;;;13.70;48.70;;;;;;4960568;28;20127;-73
2024/03/14 12:24:24;;;;;;;5.75;4.25;;;13.70;48.60;;;;;;4961314;28;20050;-73
2024/03/14 12:26:52;;;;;;;6.53;4.35;;;13.60;48.80;;;;;;4964431;28;20596;-73
2024/03/14 12:29:20;;;;;;;6.88;4.28;;;13.60;48.40;;;;;;4963858;28;20043;-74
2024/03/14 12:31:47;;;;;;;8.23;5.00;;;13.60;48.40;;;;;;4961864;28;20043;-74
2024/03/14 12:34:16;;;;;;;6.60;4.63;;;13.70;47.70;;;;;;4959801;28;20375;-75
2024/03/14 12:36:46;;;;;;;8.35;4.18;;;13.70;47.60;;;;;;4960992;28;20538;-75
2024/03/14 12:39:12;;;;;;;6.97;4.05;;;13.60;47.70;;;;;;4962981;28;20022;-75
2024/03/14 12:41:38;;;;;;;8.48;4.57;;;13.60;48.40;;;;;;4960572;28;20034;-75
2024/03/14 12:44:06;;;;;;;6.97;4.38;;;13.60;48.30;;;;;;4961671;28;20585;-75
2024/03/14 12:46:33;;;;;;;7.40;4.65;;;13.60;47.80;;;;;;4958437;28;20655;-74
2024/03/14 12:49:07;;;;;;;7.20;4.28;;;13.60;47.70;;;;;;4959616;28;20081;-75
2024/03/14 12:51:33;;;;;;;8.90;4.50;;;13.50;47.80;;;;;;4962624;28;20031;-75
2024/03/14 12:54:00;;;;;;;6.57;4.30;;;13.50;48.30;;;;;;4975696;28;20085;-74